createdAt,value
2019-02-21T00:02:07.218Z,13.27
2019-02-21T00:06:23.804Z,18.53
2019-02-21T00:10:40.247Z,17.33
2019-02-21T00:14:56.749Z,25.20
2019-02-21T00:19:13.243Z,12.60
2019-02-21T00:23:29.671Z,16.90
2019-02-21T00:27:47.257Z,15.47
2019-02-21T00:32:03.717Z,16.10
2019-02-21T00:36:20.248Z,18.77
2019-02-21T00:40:36.758Z,22.03
2019-02-21T00:44:53.277Z,18.07
2019-02-21T00:49:09.787Z,20.60
2019-02-21T00:53:26.634Z,22.60
2019-02-21T00:57:43.398Z,16.63
2019-02-21T01:01:59.822Z,16.27
2019-02-21T01:06:16.477Z,16.83
2019-02-21T01:10:33.096Z,12.90
2019-02-21T01:14:49.593Z,16.63
2019-02-21T01:19:06.011Z,18.00
2019-02-21T01:23:22.429Z,22.57
2019-02-21T01:27:38.965Z,20.40
2019-02-21T01:31:55.482Z,20.10
2019-02-21T01:36:31.730Z,27.50
2019-02-21T01:40:48.614Z,22.10
2019-02-21T01:45:06.491Z,24.53
2019-02-21T01:49:23.016Z,21.37
2019-02-21T01:53:39.555Z,15.33
2019-02-21T01:57:56.386Z,27.13
2019-02-21T02:02:13.636Z,22.33
2019-02-21T02:06:30.574Z,19.73
2019-02-21T02:10:47.269Z,21.90
2019-02-21T02:15:07.189Z,18.47
2019-02-21T02:19:23.627Z,18.13
2019-02-21T02:23:40.333Z,17.70
2019-02-21T02:27:56.797Z,24.50
2019-02-21T02:32:13.328Z,20.23
2019-02-21T02:36:29.790Z,19.93
2019-02-21T02:40:46.240Z,24.70
2019-02-21T02:45:04.907Z,15.90
2019-02-21T02:49:21.443Z,24.30
2019-02-21T02:53:37.955Z,19.23
2019-02-21T02:57:54.456Z,28.63
2019-02-21T03:02:10.949Z,23.60
2019-02-21T03:06:27.378Z,18.53
2019-02-21T03:10:43.905Z,31.03
2019-02-21T03:15:00.624Z,27.53
2019-02-21T03:19:17.138Z,19.63
2019-02-21T03:23:33.614Z,19.90
2019-02-21T03:27:50.074Z,22.80
2019-02-21T03:32:06.664Z,29.70
2019-02-21T03:36:23.198Z,26.43
2019-02-21T03:40:39.797Z,28.40
2019-02-21T03:44:56.339Z,21.40
2019-02-21T03:49:13.125Z,20.40
2019-02-21T03:53:29.679Z,25.77
2019-02-21T03:57:46.382Z,22.07
2019-02-21T04:02:05.664Z,13.27
2019-02-21T04:06:21.777Z,21.77
2019-02-21T04:10:38.290Z,16.30
2019-02-21T04:14:54.902Z,21.80
2019-02-21T04:19:11.460Z,13.30
2019-02-21T04:23:28.200Z,19.17
2019-02-21T04:27:44.626Z,14.93
2019-02-21T04:32:01.331Z,16.33
2019-02-21T04:36:17.817Z,17.17
2019-02-21T04:40:34.318Z,15.73
2019-02-21T04:44:50.820Z,23.93
2019-02-21T04:49:07.351Z,16.53
2019-02-21T04:53:23.894Z,14.90
2019-02-21T04:57:40.408Z,21.80
2019-02-21T05:01:58.795Z,20.23
2019-02-21T05:06:15.497Z,16.10
2019-02-21T05:10:32.094Z,17.57
2019-02-21T05:14:48.681Z,21.13
2019-02-21T05:19:08.040Z,12.57
2019-02-21T05:23:29.118Z,12.43
2019-02-21T05:27:46.916Z,9.60
2019-02-21T05:32:08.025Z,12.90
2019-02-21T05:36:43.267Z,11.30
2019-02-21T05:41:11.845Z,9.83
2019-02-21T05:45:34.147Z,12.80
2019-02-21T05:49:53.787Z,11.70
2019-02-21T05:54:12.807Z,16.40
2019-02-21T05:58:40.545Z,16.27
2019-02-21T06:03:16.052Z,14.30
2019-02-21T06:07:40.351Z,16.65
2019-02-21T06:11:58.859Z,20.65
2019-02-21T06:16:35.549Z,15.17
2019-02-21T06:21:06.010Z,20.30
2019-02-21T06:25:30.188Z,15.03
2019-02-21T06:29:50.385Z,15.90
2019-02-21T06:34:06.875Z,17.20
2019-02-21T06:38:23.314Z,16.63
2019-02-21T06:42:40.067Z,19.33
2019-02-21T06:46:56.534Z,27.83
2019-02-21T06:51:13.040Z,28.93
2019-02-21T06:55:29.553Z,22.47
2019-02-21T06:59:45.978Z,22.10
2019-02-21T07:04:02.484Z,19.10
2019-02-21T07:08:19.284Z,18.30
2019-02-21T07:12:35.851Z,22.27
2019-02-21T07:16:52.355Z,24.20
2019-02-21T07:21:08.825Z,30.00
2019-02-21T07:25:27.162Z,35.17
2019-02-21T07:29:44.020Z,30.97
2019-02-21T07:34:01.669Z,26.10
2019-02-21T07:38:18.324Z,21.47
2019-02-21T07:42:35.133Z,24.53
2019-02-21T07:46:53.409Z,24.50
2019-02-21T07:51:13.413Z,32.17
2019-02-21T07:55:29.187Z,27.83
2019-02-21T07:59:46.047Z,28.60
2019-02-21T08:04:02.707Z,24.90
2019-02-21T08:08:20.919Z,16.10
2019-02-21T08:12:37.423Z,20.37
2019-02-21T08:16:56.096Z,25.37
2019-02-21T08:21:12.569Z,24.77
2019-02-21T08:25:29.070Z,20.50
2019-02-21T08:29:45.508Z,26.83
2019-02-21T08:34:06.880Z,29.33
2019-02-21T08:38:23.657Z,24.13
2019-02-21T08:42:40.177Z,24.13
2019-02-21T08:46:57.037Z,19.63
2019-02-21T08:51:13.507Z,22.23
2019-02-21T08:55:30.375Z,21.03
2019-02-21T08:59:46.851Z,13.80
2019-02-21T09:04:10.942Z,26.57
2019-02-21T09:08:32.696Z,27.67
2019-02-21T09:12:40.457Z,21.53
2019-02-21T09:16:56.937Z,27.80
2019-02-21T09:21:13.794Z,25.20
2019-02-21T09:25:30.220Z,21.97
2019-02-21T09:29:46.677Z,22.40
2019-02-21T09:34:03.188Z,19.80
2019-02-21T09:38:19.890Z,19.57
2019-02-21T09:42:36.387Z,18.27
2019-02-21T09:46:52.914Z,22.00
2019-02-21T09:51:09.689Z,16.83
2019-02-21T09:55:26.574Z,27.83
2019-02-21T09:59:43.010Z,28.77
2019-02-21T10:03:59.502Z,20.93
2019-02-21T10:08:16.132Z,21.03
2019-02-21T10:12:32.624Z,20.50
2019-02-21T10:16:49.714Z,20.47
2019-02-21T10:21:06.275Z,13.67
2019-02-21T10:25:27.477Z,25.17
2019-02-21T10:29:43.941Z,16.43
2019-02-21T10:34:00.426Z,22.03
2019-02-21T10:38:17.309Z,19.77
2019-02-21T10:42:33.774Z,22.30
2019-02-21T10:46:50.647Z,22.13
2019-02-21T10:51:07.380Z,20.67
2019-02-21T10:55:23.845Z,21.97
2019-02-21T10:59:46.533Z,21.97
2019-02-21T11:03:58.613Z,20.13
2019-02-21T11:08:15.131Z,22.30
2019-02-21T11:12:31.742Z,21.63
2019-02-21T11:16:48.334Z,17.57
2019-02-21T11:21:04.771Z,20.73
2019-02-21T11:25:21.597Z,20.20
2019-02-21T11:29:38.110Z,14.40
2019-02-21T11:33:54.602Z,21.13
2019-02-21T11:38:11.166Z,19.60
2019-02-21T11:42:28.022Z,16.23
2019-02-21T11:46:44.511Z,17.17
2019-02-21T11:51:00.975Z,19.37
2019-02-21T11:55:25.372Z,16.50
2019-02-21T11:59:42.209Z,19.03
2019-02-21T12:03:59.003Z,21.43
2019-02-21T12:08:15.434Z,19.60
2019-02-21T12:12:31.882Z,14.33
2019-02-21T12:16:48.379Z,17.93
2019-02-21T12:21:05.153Z,18.00
2019-02-21T12:25:22.813Z,21.43
2019-02-21T12:29:39.358Z,21.47
2019-02-21T12:33:55.879Z,23.00
2019-02-21T12:38:12.410Z,23.60
2019-02-21T12:42:28.905Z,20.63
2019-02-21T12:46:45.832Z,20.37
2019-02-21T12:51:02.463Z,22.17
2019-02-21T12:55:26.987Z,22.13
2019-02-21T12:59:37.241Z,22.83
2019-02-21T13:03:53.738Z,22.03
2019-02-21T13:08:10.267Z,24.10
2019-02-21T13:12:26.771Z,21.00
2019-02-21T13:16:43.354Z,22.53
2019-02-21T13:20:59.804Z,20.53
2019-02-21T13:25:17.653Z,15.93
2019-02-21T13:29:34.065Z,19.83
2019-02-21T13:33:50.610Z,18.77
2019-02-21T13:38:07.462Z,15.00
2019-02-21T13:42:24.047Z,18.10
2019-02-21T13:46:41.517Z,17.47
2019-02-21T13:50:58.470Z,19.03
2019-02-21T13:55:15.022Z,15.77
2019-02-21T13:59:31.551Z,15.23
2019-02-21T14:03:48.391Z,17.03
2019-02-21T14:08:05.303Z,20.10
2019-02-21T14:12:22.096Z,15.63
2019-02-21T14:16:46.475Z,16.43
2019-02-21T14:20:57.535Z,14.97
2019-02-21T14:25:13.977Z,15.03
2019-02-21T14:29:38.890Z,14.57
2019-02-21T14:33:51.682Z,16.10
2019-02-21T14:38:07.362Z,16.73
2019-02-21T14:42:23.943Z,15.43
2019-02-21T14:46:40.359Z,21.03
2019-02-21T14:50:57.055Z,26.80
2019-02-21T14:55:14.518Z,20.97
2019-02-21T14:59:30.974Z,20.50
2019-02-21T15:03:47.735Z,15.57
2019-02-21T15:08:12.192Z,15.67
2019-02-21T15:12:29.197Z,18.00
2019-02-21T15:16:45.822Z,15.60
2019-02-21T15:21:02.574Z,19.20
2019-02-21T15:25:19.158Z,17.17
2019-02-21T15:29:38.399Z,15.43
2019-02-21T15:33:54.139Z,15.20
2019-02-21T15:38:19.497Z,15.70
2019-02-21T15:42:29.305Z,16.27
2019-02-21T15:46:45.988Z,17.00
2019-02-21T15:51:02.445Z,19.80
2019-02-21T15:55:20.079Z,20.20
2019-02-21T15:59:36.624Z,17.57
2019-02-21T16:03:53.380Z,17.20
2019-02-21T16:08:09.826Z,16.63
2019-02-21T16:12:26.431Z,15.53
2019-02-21T16:16:43.217Z,15.33
2019-02-21T16:20:59.670Z,17.90
2019-02-21T16:25:21.057Z,16.93
2019-02-21T16:29:37.889Z,18.27
2019-02-21T16:33:54.383Z,18.10
2019-02-21T16:38:11.225Z,14.57
2019-02-21T16:42:27.906Z,17.13
2019-02-21T16:46:44.445Z,16.93
2019-02-21T16:51:00.920Z,15.90
2019-02-21T16:55:21.839Z,17.07
2019-02-21T16:59:38.542Z,13.73
2019-02-21T17:03:55.908Z,15.77
2019-02-21T17:08:12.431Z,12.77
2019-02-21T17:12:28.968Z,18.53
2019-02-21T17:16:45.915Z,19.42
2019-02-21T17:21:02.473Z,13.53
2019-02-21T17:25:19.011Z,18.60
2019-02-21T17:29:35.535Z,19.00
2019-02-21T17:33:52.054Z,13.93
2019-02-21T17:38:08.675Z,21.17
2019-02-21T17:42:25.190Z,27.70
2019-02-21T17:46:41.706Z,20.10
2019-02-21T17:50:58.219Z,22.40
2019-02-21T17:55:15.622Z,27.40
2019-02-21T17:59:32.176Z,21.63
2019-02-21T18:03:48.687Z,21.37
2019-02-21T18:08:08.975Z,25.93
2019-02-21T18:12:25.817Z,22.87
2019-02-21T18:16:42.676Z,21.07
2019-02-21T18:20:59.143Z,19.60
2019-02-21T18:25:35.851Z,19.13
2019-02-21T18:29:52.592Z,17.37
2019-02-21T18:34:09.377Z,16.20
2019-02-21T18:38:25.892Z,21.47
2019-02-21T18:42:42.433Z,19.20
2019-02-21T18:46:59.445Z,23.57
2019-02-21T18:51:18.748Z,20.17
2019-02-21T18:55:34.600Z,21.67
2019-02-21T18:59:51.321Z,19.73
2019-02-21T19:04:07.835Z,19.83
2019-02-21T19:08:26.393Z,25.47
2019-02-21T19:12:42.839Z,27.07
2019-02-21T19:16:59.359Z,21.70
2019-02-21T19:21:16.893Z,26.57
2019-02-21T19:25:34.064Z,26.03
2019-02-21T19:29:51.130Z,21.57
2019-02-21T19:34:07.784Z,26.30
2019-02-21T19:38:24.695Z,22.83
2019-02-21T19:42:41.626Z,24.03
2019-02-21T19:47:00.115Z,24.43
2019-02-21T19:51:17.321Z,23.70
2019-02-21T19:55:33.801Z,17.20
2019-02-21T19:59:50.471Z,21.17
2019-02-21T20:04:07.092Z,19.63
2019-02-21T20:08:23.686Z,31.57
2019-02-21T20:12:41.096Z,30.10
2019-02-21T20:16:58.158Z,31.00
2019-02-21T20:21:14.683Z,26.17
2019-02-21T20:25:31.213Z,32.13
2019-02-21T20:29:47.806Z,41.00
2019-02-21T20:34:04.997Z,32.80
2019-02-21T20:38:31.604Z,35.77
2019-02-21T20:42:39.800Z,40.93
2019-02-21T20:46:56.763Z,38.03
2019-02-21T20:51:13.345Z,38.40
2019-02-21T20:55:29.964Z,38.30
2019-02-21T20:59:46.881Z,44.43
2019-02-21T21:04:03.783Z,40.93
2019-02-21T21:08:21.220Z,40.20
2019-02-21T21:12:38.162Z,41.00
2019-02-21T21:16:55.003Z,52.20
2019-02-21T21:21:12.075Z,53.30
2019-02-21T21:25:28.591Z,53.10
2019-02-21T21:29:45.478Z,52.63
2019-02-21T21:34:02.324Z,46.57
2019-02-21T21:38:24.273Z,54.10
2019-02-21T21:42:37.452Z,52.63
2019-02-21T21:46:54.074Z,60.13
2019-02-21T21:51:10.682Z,55.20
2019-02-21T21:55:27.198Z,66.70
2019-02-21T21:59:43.726Z,52.13
2019-02-21T22:04:00.244Z,60.43
2019-02-21T22:08:16.872Z,85.17
2019-02-21T22:12:33.468Z,85.10
2019-02-21T22:16:50.286Z,88.07
2019-02-21T22:21:06.693Z,88.17
2019-02-21T22:25:23.214Z,79.37
2019-02-21T22:29:39.735Z,85.30
2019-02-21T22:33:56.256Z,93.80
2019-02-21T22:38:12.750Z,97.93
2019-02-21T22:42:29.175Z,95.13
2019-02-21T22:46:45.981Z,90.73
2019-02-21T22:51:02.779Z,83.43
2019-02-21T22:55:19.249Z,93.20
2019-02-21T22:59:36.100Z,94.27
2019-02-21T23:03:56.286Z,83.17
2019-02-21T23:08:16.573Z,88.57
2019-02-21T23:12:33.092Z,101.50
2019-02-21T23:16:49.621Z,97.57
2019-02-21T23:21:06.221Z,98.43
2019-02-21T23:25:22.855Z,91.70
2019-02-21T23:29:39.453Z,87.00
2019-02-21T23:34:03.510Z,90.17
2019-02-21T23:38:20.338Z,79.37
2019-02-21T23:42:36.978Z,89.87
2019-02-21T23:46:54.279Z,92.40
2019-02-21T23:51:10.729Z,80.97
2019-02-21T23:55:27.270Z,84.43
2019-02-21T23:59:44.118Z,86.10
